Time;durP1;ratioP1;P1;durP2;ratioP2;P2;SDS_P1;SDS_P2;PMS_P1;PMS_P2;Temp;Humidity;BMP_temperature;BMP_pressure;BME280_temperature;BME280_humidity;BME280_pressure;Samples;Min_cycle;Max_cycle;Signal;HPM_P1;HPM_P2
2024/03/25 00:01:39;;;;;;;11.10;7.20;;;;;;;;;;5074186;28;20051;-68
2024/03/25 00:04:04;;;;;;;14.85;8.23;;;;;;;;;;5074073;28;20032;-69
2024/03/25 00:06:33;;;;;;;32.65;16.85;;;;;;;;;;5074254;28;20029;-69
2024/03/25 00:08:59;;;;;;;16.60;10.65;;;;;;;;;;5073979;28;20040;-70
2024/03/25 00:11:25;;;;;;;21.55;13.32;;;;;;;;;;5072541;28;20522;-70
2024/03/25 00:13:50;;;;;;;19.92;12.23;;;;;;;;;;5073832;28;20021;-65
2024/03/25 00:16:16;;;;;;;20.88;9.93;;;;;;;;;;5072928;28;20170;-65
2024/03/25 00:18:42;;;;;;;14.98;9.23;;;;;;;;;;5056033;28;20032;-65
2024/03/25 00:21:07;;;;;;;21.65;11.82;;;;;;;;;;5073759;28;20418;-68
2024/03/25 00:23:32;;;;;;;12.40;7.88;;;;;;;;;;5073842;28;20048;-68
2024/03/25 00:25:58;;;;;;;11.75;6.95;;;;;;;;;;5073425;28;20032;-67
2024/03/25 00:28:23;;;;;;;10.20;6.55;;;;;;;;;;5072535;28;20039;-72
2024/03/25 00:30:49;;;;;;;12.40;7.55;;;;;;;;;;5073497;28;20024;-72
2024/03/25 00:33:16;;;;;;;11.73;7.90;;;;;;;;;;5073490;28;20040;-73
2024/03/25 00:35:47;;;;;;;18.00;10.30;;;;;;;;;;5077163;28;20020;-73
2024/03/25 00:38:12;;;;;;;19.27;11.30;;;;;;;;;;5077442;28;20125;-73
2024/03/25 00:40:37;;;;;;;19.08;11.55;;;;;;;;;;5058193;22;20164;-67
2024/03/25 00:43:03;;;;;;;22.83;11.73;;;;;;;;;;5019454;28;20033;-72
2024/03/25 00:45:46;;;;;;;15.73;9.55;;;;;;;;;;5037068;28;20042;-72
2024/03/25 00:48:11;;;;;;;14.70;9.15;;;;;;;;;;5036131;28;20025;-73
2024/03/25 00:50:37;;;;;;;15.07;8.82;;;;;;;;;;5003034;28;20037;-73
2024/03/25 00:53:02;;;;;;;12.13;8.77;;;;;;;;;;5037265;28;20069;-72
2024/03/25 00:55:28;;;;;;;14.32;8.60;;;;;;;;;;5052322;28;20025;-72
2024/03/25 00:57:53;;;;;;;14.80;8.70;;;;;;;;;;5036944;28;20070;-72
2024/03/25 01:00:19;;;;;;;16.02;9.32;;;;;;;;;;5037167;28;20022;-72
2024/03/25 01:02:45;;;;;;;16.27;9.70;;;;;;;;;;5037118;28;20038;-73
2024/03/25 01:05:10;;;;;;;17.63;9.85;;;;;;;;;;5037079;28;20021;-73
2024/03/25 01:07:35;;;;;;;16.25;10.52;;;;;;;;;;5052090;28;20033;-72
2024/03/25 01:10:01;;;;;;;15.68;10.00;;;;;;;;;;5037041;28;20095;-73
2024/03/25 01:12:26;;;;;;;15.43;9.27;;;;;;;;;;5019162;28;20064;-68
2024/03/25 01:14:52;;;;;;;15.85;9.45;;;;;;;;;;5036932;28;20021;-70
2024/03/25 01:17:17;;;;;;;15.20;8.93;;;;;;;;;;5036625;28;20465;-70
2024/03/25 01:19:43;;;;;;;13.70;8.40;;;;;;;;;;5002468;28;20053;-69
2024/03/25 01:22:08;;;;;;;11.93;7.72;;;;;;;;;;5051922;28;20041;-72
2024/03/25 01:24:34;;;;;;;10.90;7.75;;;;;;;;;;5036462;28;20509;-72
2024/03/25 01:27:00;;;;;;;11.30;7.50;;;;;;;;;;5036422;28;20401;-72
2024/03/25 01:29:25;;;;;;;11.27;6.95;;;;;;;;;;5036577;28;20033;-72
2024/03/25 01:31:51;;;;;;;12.15;7.13;;;;;;;;;;5036525;28;20041;-73
2024/03/25 01:34:16;;;;;;;9.02;6.60;;;;;;;;;;5018776;28;20025;-73
2024/03/25 01:36:42;;;;;;;7.35;6.10;;;;;;;;;;5036546;28;20034;-72
2024/03/25 01:39:08;;;;;;;11.15;6.57;;;;;;;;;;5036522;28;20013;-73
2024/03/25 01:41:33;;;;;;;8.18;6.00;;;;;;;;;;5035986;28;20116;-72
2024/03/25 01:43:58;;;;;;;9.00;5.80;;;;;;;;;;5018495;28;20029;-68
2024/03/25 01:46:24;;;;;;;7.05;5.53;;;;;;;;;;5057540;22;20207;-68
2024/03/25 01:48:50;;;;;;;8.48;5.88;;;;;;;;;;5036323;28;20032;-69
2024/03/25 01:51:17;;;;;;;8.07;5.40;;;;;;;;;;5018785;28;20115;-69
2024/03/25 01:53:43;;;;;;;6.65;5.43;;;;;;;;;;5036148;28;20033;-70
2024/03/25 01:56:08;;;;;;;6.90;5.50;;;;;;;;;;5036175;28;20029;-69
2024/03/25 01:58:34;;;;;;;6.82;4.68;;;;;;;;;;5035895;28;20413;-71
2024/03/25 02:01:01;;;;;;;7.32;5.05;;;;;;;;;;5036095;28;20020;-70
2024/03/25 02:03:27;;;;;;;5.43;4.50;;;;;;;;;;5036086;28;20038;-71
2024/03/25 02:05:55;;;;;;;6.70;4.80;;;;;;;;;;5036001;28;20025;-71
2024/03/25 02:08:20;;;;;;;6.00;4.50;;;;;;;;;;5035683;28;20033;-71
2024/03/25 02:10:46;;;;;;;4.97;4.47;;;;;;;;;;5035931;28;20040;-71
2024/03/25 02:13:12;;;;;;;4.88;3.78;;;;;;;;;;5017704;28;20039;-71
2024/03/25 02:15:37;;;;;;;3.95;3.55;;;;;;;;;;5035577;28;20026;-71
2024/03/25 02:18:03;;;;;;;3.85;3.45;;;;;;;;;;5018099;28;20029;-72
2024/03/25 02:20:29;;;;;;;3.97;3.40;;;;;;;;;;5035775;28;20037;-71
2024/03/25 02:22:56;;;;;;;4.43;3.80;;;;;;;;;;5017944;28;20041;-71
2024/03/25 02:25:22;;;;;;;3.88;3.33;;;;;;;;;;5001751;28;20124;-71
2024/03/25 02:27:48;;;;;;;4.55;3.60;;;;;;;;;;5017543;28;20114;-71
2024/03/25 02:30:14;;;;;;;6.88;4.60;;;;;;;;;;5017466;28;20038;-71
2024/03/25 02:32:40;;;;;;;7.22;4.47;;;;;;;;;;5035673;28;20114;-71
2024/03/25 02:35:07;;;;;;;4.90;4.40;;;;;;;;;;5035408;28;20057;-71
2024/03/25 02:37:33;;;;;;;6.53;4.88;;;;;;;;;;5017446;28;20024;-71
2024/03/25 02:39:59;;;;;;;6.60;4.85;;;;;;;;;;5035349;28;20109;-70
2024/03/25 02:42:30;;;;;;;5.30;4.43;;;;;;;;;;5017342;28;20029;-66
2024/03/25 02:44:59;;;;;;;6.47;4.45;;;;;;;;;;5034958;28;20038;-67
2024/03/25 02:47:25;;;;;;;4.72;4.20;;;;;;;;;;5034874;28;20052;-70
2024/03/25 02:49:51;;;;;;;5.05;4.30;;;;;;;;;;5017123;28;20124;-68
2024/03/25 02:52:16;;;;;;;7.15;4.65;;;;;;;;;;5017134;28;20515;-68
2024/03/25 02:54:44;;;;;;;4.97;4.47;;;;;;;;;;5034779;28;20026;-72
2024/03/25 02:57:09;;;;;;;5.10;4.00;;;;;;;;;;5034168;28;20025;-67
2024/03/25 02:59:40;;;;;;;5.55;4.43;;;;;;;;;;5037929;23;20493;-66
2024/03/25 03:02:06;;;;;;;5.72;4.60;;;;;;;;;;5017245;28;20029;-65
2024/03/25 03:04:31;;;;;;;4.95;4.32;;;;;;;;;;5034549;28;20428;-66
2024/03/25 03:06:58;;;;;;;4.97;4.10;;;;;;;;;;5034489;28;20546;-66
2024/03/25 03:09:23;;;;;;;4.97;3.85;;;;;;;;;;5034758;28;20105;-67
2024/03/25 03:11:48;;;;;;;4.50;3.80;;;;;;;;;;5034387;28;20021;-67
2024/03/25 03:14:14;;;;;;;7.32;4.55;;;;;;;;;;5049636;28;20025;-66
2024/03/25 03:16:39;;;;;;;4.35;3.90;;;;;;;;;;5049706;28;20017;-66
2024/03/25 03:19:05;;;;;;;9.95;6.05;;;;;;;;;;5034460;28;20021;-66
2024/03/25 03:21:31;;;;;;;10.48;6.28;;;;;;;;;;5034277;28;20018;-67
2024/03/25 03:23:57;;;;;;;10.40;6.68;;;;;;;;;;5034259;28;20040;-69
2024/03/25 03:26:26;;;;;;;9.70;6.00;;;;;;;;;;5049550;28;20369;-69
2024/03/25 03:28:53;;;;;;;8.60;5.28;;;;;;;;;;5034173;28;20029;-69
2024/03/25 03:31:18;;;;;;;11.20;5.60;;;;;;;;;;5034223;28;20036;-67
2024/03/25 03:33:43;;;;;;;6.00;4.85;;;;;;;;;;5034023;28;20073;-67
2024/03/25 03:36:09;;;;;;;7.47;5.13;;;;;;;;;;5034022;28;20010;-68
2024/03/25 03:38:34;;;;;;;6.57;4.60;;;;;;;;;;5034349;28;20026;-71
2024/03/25 03:41:00;;;;;;;8.93;5.07;;;;;;;;;;5033953;28;20040;-67
2024/03/25 03:43:26;;;;;;;8.50;4.88;;;;;;;;;;5016194;28;20038;-68
2024/03/25 03:45:51;;;;;;;6.65;4.50;;;;;;;;;;5034425;28;20040;-67
2024/03/25 03:48:16;;;;;;;9.57;6.15;;;;;;;;;;5034115;28;20033;-69
2024/03/25 03:50:42;;;;;;;11.63;4.68;;;;;;;;;;5033794;28;20116;-69
2024/03/25 03:53:08;;;;;;;8.68;5.53;;;;;;;;;;5034248;28;20022;-70
2024/03/25 03:55:33;;;;;;;6.70;4.97;;;;;;;;;;5049139;28;20022;-72
2024/03/25 03:58:05;;;;;;;5.30;4.80;;;;;;;;;;5045062;22;20390;-72
2024/03/25 04:00:34;;;;;;;4.55;4.15;;;;;;;;;;5033955;28;20030;-72
2024/03/25 04:03:00;;;;;;;4.60;4.20;;;;;;;;;;5033965;28;20426;-72
2024/03/25 04:05:28;;;;;;;5.00;4.43;;;;;;;;;;5033648;28;20109;-72
2024/03/25 04:07:53;;;;;;;4.57;4.18;;;;;;;;;;5015741;28;20057;-71
2024/03/25 04:10:19;;;;;;;4.03;3.63;;;;;;;;;;5033591;28;20080;-72
2024/03/25 04:12:44;;;;;;;3.67;3.30;;;;;;;;;;5033415;28;20069;-72
2024/03/25 04:15:15;;;;;;;4.15;3.85;;;;;;;;;;5033400;28;20036;-73
2024/03/25 04:17:40;;;;;;;3.97;3.67;;;;;;;;;;5033507;28;20029;-73
2024/03/25 04:20:10;;;;;;;4.32;3.92;;;;;;;;;;5033465;28;20030;-72
2024/03/25 04:22:35;;;;;;;6.07;4.40;;;;;;;;;;5016134;28;20044;-72
2024/03/25 04:25:01;;;;;;;8.88;3.72;;;;;;;;;;5033143;28;20033;-71
2024/03/25 04:27:26;;;;;;;4.55;4.15;;;;;;;;;;5015639;28;20115;-72
2024/03/25 04:29:52;;;;;;;4.28;3.88;;;;;;;;;;5033500;28;20021;-73
2024/03/25 04:32:17;;;;;;;6.45;3.50;;;;;;;;;;5033897;28;20034;-71
2024/03/25 04:34:42;;;;;;;7.60;3.83;;;;;;;;;;5033837;28;20101;-72
2024/03/25 04:37:09;;;;;;;4.22;3.60;;;;;;;;;;5033302;28;20037;-72
2024/03/25 04:39:35;;;;;;;3.50;3.17;;;;;;;;;;5015694;28;20025;-73
2024/03/25 04:42:00;;;;;;;9.50;2.88;;;;;;;;;;5033215;28;20511;-72
2024/03/25 04:44:27;;;;;;;3.40;2.60;;;;;;;;;;5033638;28;20025;-73
2024/03/25 04:46:54;;;;;;;4.68;2.55;;;;;;;;;;5033324;28;20104;-72
2024/03/25 04:49:20;;;;;;;2.97;2.78;;;;;;;;;;5033331;28;20036;-73
2024/03/25 04:51:45;;;;;;;4.82;4.15;;;;;;;;;;5032435;28;20116;-72
2024/03/25 04:54:11;;;;;;;4.85;4.30;;;;;;;;;;5031326;28;20033;-71
2024/03/25 04:56:36;;;;;;;4.57;3.17;;;;;;;;;;5013701;28;20020;-70
2024/03/25 04:59:02;;;;;;;3.17;2.83;;;;;;;;;;5032368;28;20038;-70
2024/03/25 05:01:27;;;;;;;2.95;2.75;;;;;;;;;;5047368;28;20087;-72
2024/03/25 05:03:53;;;;;;;2.58;2.38;;;;;;;;;;5032404;28;20128;-71
2024/03/25 05:06:19;;;;;;;4.55;2.67;;;;;;;;;;5042129;23;20076;-71
2024/03/25 05:08:44;;;;;;;3.20;2.75;;;;;;;;;;5048417;28;20025;-72
2024/03/25 05:11:13;;;;;;;3.03;2.72;;;;;;;;;;5016293;28;20036;-72
2024/03/25 05:13:38;;;;;;;2.33;2.17;;;;;;;;;;5032805;28;20029;-71
2024/03/25 05:16:04;;;;;;;2.10;1.95;;;;;;;;;;5033247;28;20037;-71
2024/03/25 05:18:29;;;;;;;2.47;2.28;;;;;;;;;;5033277;28;20022;-71
2024/03/25 05:20:55;;;;;;;2.92;2.72;;;;;;;;;;5035395;28;20036;-72
2024/03/25 05:23:20;;;;;;;2.40;2.30;;;;;;;;;;5051891;28;20080;-72
2024/03/25 05:25:46;;;;;;;2.35;2.17;;;;;;;;;;5036510;28;20121;-71
2024/03/25 05:28:13;;;;;;;2.70;2.50;;;;;;;;;;5036424;28;20075;-70
2024/03/25 05:30:38;;;;;;;2.30;2.15;;;;;;;;;;5036598;28;20093;-69
2024/03/25 05:33:04;;;;;;;2.60;2.40;;;;;;;;;;5051590;28;20056;-69
2024/03/25 05:35:30;;;;;;;2.63;2.42;;;;;;;;;;5036752;28;20112;-70
2024/03/25 05:37:56;;;;;;;2.00;1.90;;;;;;;;;;5036701;28;20034;-69
2024/03/25 05:40:22;;;;;;;2.35;2.15;;;;;;;;;;5018891;28;20067;-73
2024/03/25 05:42:48;;;;;;;2.38;2.28;;;;;;;;;;5018974;28;20033;-68
2024/03/25 05:45:14;;;;;;;2.53;2.42;;;;;;;;;;5036050;28;20405;-69
2024/03/25 05:47:40;;;;;;;2.20;2.05;;;;;;;;;;5052199;28;20033;-68
2024/03/25 05:50:05;;;;;;;2.00;1.90;;;;;;;;;;5036584;28;20033;-68
2024/03/25 05:52:33;;;;;;;2.70;2.50;;;;;;;;;;5018394;28;20086;-68
2024/03/25 05:54:59;;;;;;;2.88;2.67;;;;;;;;;;5036493;28;20021;-69
2024/03/25 05:57:24;;;;;;;3.08;2.25;;;;;;;;;;5001773;28;20503;-69
2024/03/25 05:59:50;;;;;;;2.05;1.95;;;;;;;;;;5036077;28;20028;-68
2024/03/25 06:02:15;;;;;;;2.40;2.20;;;;;;;;;;5036547;28;20065;-68
2024/03/25 06:04:40;;;;;;;2.35;2.15;;;;;;;;;;5036368;28;20029;-69
2024/03/25 06:07:09;;;;;;;2.47;2.33;;;;;;;;;;5035575;28;20087;-69
2024/03/25 06:09:35;;;;;;;2.33;2.20;;;;;;;;;;5036261;28;20491;-69
2024/03/25 06:12:02;;;;;;;1.92;1.73;;;;;;;;;;5035531;28;20065;-69
2024/03/25 06:14:28;;;;;;;1.40;1.30;;;;;;;;;;5035870;28;20377;-69
2024/03/25 06:16:54;;;;;;;1.88;1.77;;;;;;;;;;5035556;28;20033;-70
2024/03/25 06:19:20;;;;;;;2.35;2.05;;;;;;;;;;5036262;28;20045;-69
2024/03/25 06:21:45;;;;;;;2.88;2.50;;;;;;;;;;5018349;28;20068;-69
2024/03/25 06:24:12;;;;;;;2.03;1.92;;;;;;;;;;5035687;28;20029;-68
2024/03/25 06:26:37;;;;;;;2.50;2.30;;;;;;;;;;5035640;28;20053;-69
2024/03/25 06:29:03;;;;;;;1.98;1.88;;;;;;;;;;5035307;28;20536;-69
2024/03/25 06:34:21;;;;;;;2.05;1.95;;;;;;;;;;5035671;28;20037;-69
2024/03/25 06:36:47;;;;;;;2.25;2.15;;;;;;;;;;5016552;28;20374;-67
2024/03/25 06:39:13;;;;;;;2.55;2.35;;;;;;;;;;5033592;28;20495;-69
2024/03/25 06:41:39;;;;;;;2.08;1.98;;;;;;;;;;5033407;28;20104;-68
2024/03/25 06:44:04;;;;;;;2.78;2.58;;;;;;;;;;5033451;28;20029;-68
2024/03/25 06:46:30;;;;;;;3.00;2.80;;;;;;;;;;5033215;28;20484;-68
2024/03/25 06:48:55;;;;;;;2.38;2.17;;;;;;;;;;5033229;28;20041;-67
2024/03/25 06:51:20;;;;;;;2.38;2.20;;;;;;;;;;5015594;28;20025;-67
2024/03/25 06:53:46;;;;;;;2.88;2.67;;;;;;;;;;5034745;28;20033;-66
2024/03/25 06:56:11;;;;;;;4.10;3.70;;;;;;;;;;5035076;28;20036;-67
2024/03/25 06:58:38;;;;;;;2.80;2.60;;;;;;;;;;5035040;28;20046;-68
2024/03/25 07:01:07;;;;;;;2.40;2.25;;;;;;;;;;5034696;28;20472;-67
2024/03/25 07:03:33;;;;;;;2.60;2.40;;;;;;;;;;5034937;28;20029;-67
2024/03/25 07:06:00;;;;;;;2.35;2.25;;;;;;;;;;5034445;28;20048;-67
2024/03/25 07:08:26;;;;;;;2.47;2.33;;;;;;;;;;5034615;28;20037;-69
2024/03/25 07:10:52;;;;;;;6.50;4.38;;;;;;;;;;5034574;28;20383;-67
2024/03/25 07:13:18;;;;;;;4.95;3.95;;;;;;;;;;5049779;28;20034;-66
2024/03/25 07:15:43;;;;;;;3.92;2.95;;;;;;;;;;5034414;28;20476;-67
2024/03/25 07:18:10;;;;;;;3.45;2.88;;;;;;;;;;5034417;28;20029;-67
2024/03/25 07:20:36;;;;;;;4.28;2.75;;;;;;;;;;5016635;28;20029;-67
2024/03/25 07:23:03;;;;;;;6.40;3.63;;;;;;;;;;5016924;28;20129;-67
2024/03/25 07:25:29;;;;;;;3.75;3.45;;;;;;;;;;5034844;28;20057;-67
2024/03/25 07:27:55;;;;;;;3.13;2.92;;;;;;;;;;5034251;28;20575;-67
2024/03/25 07:30:22;;;;;;;2.78;2.53;;;;;;;;;;5034057;28;20108;-66
2024/03/25 07:32:47;;;;;;;3.10;2.80;;;;;;;;;;5049347;28;20033;-67
2024/03/25 07:35:16;;;;;;;2.58;2.47;;;;;;;;;;5034169;28;20030;-67
2024/03/25 07:37:45;;;;;;;5.47;4.43;;;;;;;;;;5034070;28;20025;-68
2024/03/25 07:40:11;;;;;;;4.32;3.90;;;;;;;;;;5033994;28;20347;-68
2024/03/25 07:42:37;;;;;;;6.60;4.20;;;;;;;;;;5033570;28;20018;-67
2024/03/25 07:45:04;;;;;;;6.30;3.95;;;;;;;;;;5033911;28;20041;-69
2024/03/25 07:47:30;;;;;;;3.90;3.22;;;;;;;;;;5033933;28;20021;-68
2024/03/25 07:49:56;;;;;;;4.88;3.28;;;;;;;;;;5034042;28;20030;-68
2024/03/25 07:52:21;;;;;;;5.28;4.07;;;;;;;;;;5033710;28;20488;-68
2024/03/25 07:54:47;;;;;;;4.78;3.47;;;;;;;;;;5033738;28;20030;-67
2024/03/25 07:57:12;;;;;;;2.60;2.40;;;;;;;;;;5049104;28;20029;-68
2024/03/25 07:59:38;;;;;;;3.47;2.75;;;;;;;;;;5016204;28;20056;-69
2024/03/25 08:02:03;;;;;;;2.67;2.47;;;;;;;;;;5033660;28;20429;-68
2024/03/25 08:04:30;;;;;;;4.28;3.63;;;;;;;;;;5033602;28;20033;-69
2024/03/25 08:06:55;;;;;;;2.90;2.58;;;;;;;;;;5045571;28;20057;-68
2024/03/25 08:09:20;;;;;;;5.57;4.03;;;;;;;;;;5013189;28;20354;-68
2024/03/25 08:11:45;;;;;;;5.47;3.65;;;;;;;;;;5013957;28;20042;-68
2024/03/25 08:14:11;;;;;;;6.13;4.05;;;;;;;;;;5013812;28;20077;-68
2024/03/25 08:16:37;;;;;;;3.83;3.53;;;;;;;;;;5013799;28;20073;-68
2024/03/25 08:19:03;;;;;;;4.18;2.92;;;;;;;;;;5013755;28;20061;-67
2024/03/25 08:21:29;;;;;;;3.20;2.90;;;;;;;;;;5013818;28;20026;-69
2024/03/25 08:23:54;;;;;;;4.43;3.75;;;;;;;;;;5012381;28;20033;-68
2024/03/25 08:26:20;;;;;;;5.43;4.95;;;;;;;;;;5013693;28;20030;-68
2024/03/25 08:28:45;;;;;;;4.72;4.20;;;;;;;;;;5013694;28;20049;-69
2024/03/25 08:31:10;;;;;;;3.15;2.75;;;;;;;;;;5013764;28;20154;-68
2024/03/25 08:33:36;;;;;;;3.05;2.85;;;;;;;;;;5013592;28;20033;-67
2024/03/25 08:36:01;;;;;;;2.88;2.67;;;;;;;;;;5013624;28;20499;-69
2024/03/25 08:38:29;;;;;;;2.60;2.50;;;;;;;;;;5050586;22;20054;-91
2024/03/25 08:41:02;;;;;;;3.53;3.15;;;;;;;;;;5016437;28;20037;-87
2024/03/25 08:43:42;;;;;;;3.50;3.08;;;;;;;;;;5016811;28;20033;-90
2024/03/25 08:46:35;;;;;;;4.88;3.33;;;;;;;;;;5017019;28;20018;-90
2024/03/25 08:52:30;;;;;;;3.58;3.28;;;;;;;;;;5015990;28;20029;-91
2024/03/25 08:55:13;;;;;;;3.65;3.35;;;;;;;;;;5001762;28;20025;-90
2024/03/25 08:57:53;;;;;;;3.83;3.50;;;;;;;;;;5004626;28;20039;-92
2024/03/25 09:01:08;;;;;;;;;;;;;;;;;;;;;
2024/03/25 09:03:57;;;;;;;;;;;;;;;;;;5018610;28;20471;-91
2024/03/25 09:06:32;;;;;;;2.42;2.22;;;;;;;;;;5020740;28;19913;-91
2024/03/25 09:11:59;;;;;;;3.67;2.60;;;;;;;;;;5020176;28;20033;-92
2024/03/25 09:14:46;;;;;;;3.22;2.78;;;;;;;;;;5010541;28;20042;-89
2024/03/25 09:17:17;;;;;;;3.78;2.85;;;;;;;;;;5036568;28;20036;-91
2024/03/25 09:19:58;;;;;;;;;;;;;;;;;;;;;
2024/03/25 09:22:54;;;;;;;3.22;2.95;;;;;;;;;;5036769;28;20034;-91
2024/03/25 09:25:43;;;;;;;3.35;3.03;;;;;;;;;;5025651;28;20033;-91
2024/03/25 09:28:39;;;;;;;3.22;2.58;;;;;;;;;;5020350;28;20033;-89
2024/03/25 09:31:39;;;;;;;2.80;2.60;;;;;;;;;;5019972;28;20025;-89
2024/03/25 09:34:14;;;;;;;3.35;2.85;;;;;;;;;;5020014;28;20128;-91
2024/03/25 09:40:29;;;;;;;2.58;2.05;;;;;;;;;;4960322;28;20053;-91
2024/03/25 09:43:10;;;;;;;3.55;3.25;;;;;;;;;;5011870;28;20034;-91
2024/03/25 09:48:37;;;;;;;4.25;3.05;;;;;;;;;;5036719;28;20407;-92
2024/03/25 09:51:10;;;;;;;3.15;2.90;;;;;;;;;;5020417;28;20030;-90
2024/03/25 09:56:52;;;;;;;3.13;2.92;;;;;;;;;;5000805;28;20037;-92
2024/03/25 09:59:32;;;;;;;3.50;3.17;;;;;;;;;;5036601;28;20391;-91
2024/03/25 10:02:08;;;;;;;5.20;4.50;;;;;;;;;;5019459;28;20037;-90
2024/03/25 10:05:11;;;;;;;4.47;3.97;;;;;;;;;;5020994;28;20395;-90
2024/03/25 10:07:59;;;;;;;4.38;3.50;;;;;;;;;;5035094;28;20033;-91
2024/03/25 10:10:55;;;;;;;5.95;3.50;;;;;;;;;;5019347;28;20037;-90
2024/03/25 10:13:32;;;;;;;3.22;2.92;;;;;;;;;;5019073;28;20128;-91
2024/03/25 10:16:10;;;;;;;3.55;3.22;;;;;;;;;;5035701;28;20022;-92
2024/03/25 10:18:41;;;;;;;2.40;2.20;;;;;;;;;;5035467;28;20035;-89
2024/03/25 10:21:21;;;;;;;2.63;2.42;;;;;;;;;;5035448;28;20044;-90
2024/03/25 10:24:10;;;;;;;;;;;;;;;;;;;;;
2024/03/25 10:26:52;;;;;;;1.70;1.60;;;;;;;;;;5035619;28;20033;-89
2024/03/25 10:29:26;;;;;;;1.60;1.50;;;;;;;;;;5035417;28;20077;-89
2024/03/25 10:31:54;;;;;;;;;;;;;;;;;;5035513;28;20318;-91
2024/03/25 10:34:24;;;;;;;1.83;1.73;;;;;;;;;;5035375;28;20392;-90
2024/03/25 10:37:04;;;;;;;;;;;;;;;;;;;;;
2024/03/25 10:39:40;;;;;;;2.80;2.60;;;;;;;;;;5035216;28;20049;-88
2024/03/25 10:42:08;;;;;;;0.73;0.70;;;;;;;;;;5024214;28;20026;-90
2024/03/25 10:44:36;;;;;;;1.00;1.00;;;;;;;;;;5034834;28;20034;-90
2024/03/25 10:47:06;;;;;;;0.80;0.80;;;;;;;;;;5034660;28;20025;-90
2024/03/25 10:49:41;;;;;;;0.93;0.93;;;;;;;;;;5034947;28;20021;-88
2024/03/25 10:52:13;;;;;;;1.05;1.00;;;;;;;;;;5018668;28;20034;-90
2024/03/25 10:55:01;;;;;;;0.80;0.80;;;;;;;;;;5019123;28;20479;-94
2024/03/25 10:57:38;;;;;;;0.93;0.80;;;;;;;;;;5034622;28;20052;-91
2024/03/25 11:00:08;;;;;;;0.80;0.80;;;;;;;;;;5035453;28;20056;-92
2024/03/25 11:02:43;;;;;;;1.10;1.10;;;;;;;;;;5019429;28;20033;-92
2024/03/25 11:05:18;;;;;;;0.80;0.80;;;;;;;;;;5019131;28;20033;-91
2024/03/25 11:07:47;;;;;;;0.90;0.90;;;;;;;;;;5034348;28;20097;-92
2024/03/25 11:10:40;;;;;;;0.90;0.90;;;;;;;;;;5019218;28;20128;-90
2024/03/25 11:13:22;;;;;;;0.90;0.90;;;;;;;;;;5034672;28;20033;-91
2024/03/25 11:15:49;;;;;;;0.98;0.98;;;;;;;;;;5018085;28;20029;-91
2024/03/25 11:18:37;;;;;;;0.93;0.93;;;;;;;;;;5033508;28;20038;-91
2024/03/25 11:21:07;;;;;;;2.03;1.20;;;;;;;;;;5018021;28;20080;-92
2024/03/25 11:23:41;;;;;;;1.25;1.15;;;;;;;;;;5034368;28;20060;-92
2024/03/25 11:26:35;;;;;;;1.15;1.10;;;;;;;;;;5018896;28;20486;-92
2024/03/25 11:29:03;;;;;;;2.55;1.02;;;;;;;;;;5034919;28;20025;-92
2024/03/25 11:31:52;;;;;;;0.85;0.85;;;;;;;;;;5028078;28;20024;-94
2024/03/25 11:34:23;;;;;;;1.15;1.10;;;;;;;;;;5018074;28;20151;-92
2024/03/25 11:36:56;;;;;;;0.93;0.90;;;;;;;;;;5017778;28;20487;-91
2024/03/25 11:39:32;;;;;;;;;;;;;;;;;;;;;
2024/03/25 11:42:03;;;;;;;1.23;1.13;;;;;;;;;;5034048;28;20053;-93
2024/03/25 11:44:37;;;;;;;1.20;1.20;;;;;;;;;;5034030;28;20479;-92
2024/03/25 11:47:10;;;;;;;1.05;1.05;;;;;;;;;;5017668;28;20029;-92
2024/03/25 11:52:33;;;;;;;1.40;1.30;;;;;;;;;;5021039;28;20037;-91
2024/03/25 11:55:09;;;;;;;1.27;1.17;;;;;;;;;;5034011;28;20029;-93
2024/03/25 11:57:38;;;;;;;1.75;1.05;;;;;;;;;;5034489;28;20037;-91
2024/03/25 12:00:10;;;;;;;1.42;1.35;;;;;;;;;;5017091;28;20029;-92
2024/03/25 12:02:45;;;;;;;0.98;0.98;;;;;;;;;;5018457;28;20026;-92
2024/03/25 12:05:12;;;;;;;1.30;1.20;;;;;;;;;;5033500;28;20025;-93
2024/03/25 12:08:06;;;;;;;0.93;0.93;;;;;;;;;;5033458;28;20022;-92
2024/03/25 12:13:40;;;;;;;1.25;1.17;;;;;;;;;;5034920;28;20557;-93
2024/03/25 12:16:11;;;;;;;1.08;1.05;;;;;;;;;;5017254;28;20033;-90
2024/03/25 12:18:45;;;;;;;1.08;1.08;;;;;;;;;;5033807;28;20021;-94
2024/03/25 12:21:22;;;;;;;1.60;1.50;;;;;;;;;;5017553;28;20033;-93
2024/03/25 12:23:53;;;;;;;1.17;1.17;;;;;;;;;;5017668;28;20071;-91
2024/03/25 12:26:20;;;;;;;1.10;1.00;;;;;;;;;;5033197;28;20128;-93
2024/03/25 12:28:48;;;;;;;1.13;1.02;;;;;;;;;;5034009;28;20022;-90
2024/03/25 12:31:19;;;;;;;1.17;1.05;;;;;;;;;;5037621;28;20075;-93
2024/03/25 12:33:55;;;;;;;1.33;1.15;;;;;;;;;;5021799;28;20052;-92
2024/03/25 12:36:38;;;;;;;1.50;1.23;;;;;;;;;;5037599;28;20037;-91
2024/03/25 12:39:13;;;;;;;3.28;1.45;;;;;;;;;;5037094;28;20045;-94
2024/03/25 12:41:41;;;;;;;1.40;1.30;;;;;;;;;;5037675;28;20083;-91
2024/03/25 12:44:09;;;;;;;1.80;1.70;;;;;;;;;;5020530;28;20061;-91
2024/03/25 12:46:38;;;;;;;6.00;3.53;;;;;;;;;;5021096;28;20060;-92
2024/03/25 12:49:09;;;;;;;8.87;5.37;;;;;;;;;;5021188;28;20115;-92
2024/03/25 12:51:37;;;;;;;7.13;3.75;;;;;;;;;;5037662;28;20048;-90
2024/03/25 12:54:07;;;;;;;4.93;3.30;;;;;;;;;;5020872;28;20017;-92
2024/03/25 12:56:48;;;;;;;5.90;3.92;;;;;;;;;;5037627;28;20045;-92
2024/03/25 12:59:17;;;;;;;2.50;2.30;;;;;;;;;;5036567;28;20025;-92
2024/03/25 13:01:42;;;;;;;1.58;1.48;;;;;;;;;;5020787;28;20037;-92
2024/03/25 13:04:13;;;;;;;1.05;0.98;;;;;;;;;;5020773;28;20026;-92
2024/03/25 13:06:44;;;;;;;1.25;1.15;;;;;;;;;;5020353;28;20435;-95
2024/03/25 13:09:12;;;;;;;1.10;1.02;;;;;;;;;;5036738;28;20021;-92
2024/03/25 13:11:40;;;;;;;1.30;1.20;;;;;;;;;;5036989;28;20029;-93
2024/03/25 13:14:09;;;;;;;1.98;1.50;;;;;;;;;;5019902;28;20131;-92
2024/03/25 13:16:35;;;;;;;1.50;1.40;;;;;;;;;;5036456;28;20087;-92
2024/03/25 13:19:00;;;;;;;1.48;1.38;;;;;;;;;;5019078;28;20021;-90
2024/03/25 13:21:25;;;;;;;1.45;1.33;;;;;;;;;;5020109;28;20029;-92
2024/03/25 13:24:00;;;;;;;1.60;1.50;;;;;;;;;;5020291;28;20043;-90
2024/03/25 13:26:29;;;;;;;0.63;0.63;;;;;;;;;;5020465;28;20068;-91
2024/03/25 13:29:03;;;;;;;0.85;0.85;;;;;;;;;;5021139;28;20080;-92
2024/03/25 13:31:29;;;;;;;0.70;0.68;;;;;;;;;;5020097;28;20025;-91
2024/03/25 13:33:54;;;;;;;1.13;1.10;;;;;;;;;;5019768;28;20383;-92
2024/03/25 13:36:20;;;;;;;0.77;0.60;;;;;;;;;;5020015;28;20167;-91
2024/03/25 13:38:46;;;;;;;0.95;0.80;;;;;;;;;;5019551;28;20049;-92
2024/03/25 13:41:23;;;;;;;1.08;0.90;;;;;;;;;;5019280;28;20025;-90
2024/03/25 13:43:54;;;;;;;0.80;0.80;;;;;;;;;;5019756;28;20030;-93
2024/03/25 13:49:18;;;;;;;0.93;0.88;;;;;;;;;;5024358;28;20124;-92
2024/03/25 13:51:57;;;;;;;0.80;0.80;;;;;;;;;;5020645;28;20025;-91
2024/03/25 13:54:44;;;;;;;1.02;0.90;;;;;;;;;;5019430;28;20498;-92
2024/03/25 13:57:15;;;;;;;1.17;1.13;;;;;;;;;;5019286;28;20087;-91
2024/03/25 13:59:43;;;;;;;1.33;1.23;;;;;;;;;;5019330;28;20119;-93
2024/03/25 14:02:26;;;;;;;1.70;1.60;;;;;;;;;;5019176;28;20121;-91
2024/03/25 14:05:04;;;;;;;1.50;1.40;;;;;;;;;;5019668;28;20056;-93
2024/03/25 14:07:30;;;;;;;1.60;1.50;;;;;;;;;;5019538;28;20029;-90
2024/03/25 14:09:55;;;;;;;3.20;2.10;;;;;;;;;;5018503;28;20472;-89
2024/03/25 14:12:23;;;;;;;2.58;2.38;;;;;;;;;;5018484;28;20025;-89
2024/03/25 14:14:49;;;;;;;1.95;1.85;;;;;;;;;;5018038;28;20049;-90
2024/03/25 14:17:14;;;;;;;2.00;1.90;;;;;;;;;;5016505;28;20495;-90
2024/03/25 14:19:39;;;;;;;1.95;1.80;;;;;;;;;;5016913;28;20025;-92
2024/03/25 14:22:05;;;;;;;2.10;2.00;;;;;;;;;;5017011;28;20420;-91
2024/03/25 14:24:30;;;;;;;1.80;1.70;;;;;;;;;;5018387;28;20032;-89
2024/03/25 14:26:55;;;;;;;1.70;1.60;;;;;;;;;;5018605;28;20030;-88
2024/03/25 14:29:22;;;;;;;1.77;1.67;;;;;;;;;;5015472;28;20021;-90
2024/03/25 14:31:48;;;;;;;1.85;1.75;;;;;;;;;;5028353;28;20058;-91
2024/03/25 14:34:13;;;;;;;1.85;1.75;;;;;;;;;;5013639;28;20108;-90
2024/03/25 14:36:38;;;;;;;1.50;1.40;;;;;;;;;;5009047;28;20127;-90
2024/03/25 14:39:04;;;;;;;1.58;1.48;;;;;;;;;;4991924;28;20050;-90
2024/03/25 14:41:38;;;;;;;1.42;1.33;;;;;;;;;;4992035;28;20037;-88
2024/03/25 14:44:04;;;;;;;1.55;1.45;;;;;;;;;;5008732;28;20038;-89
2024/03/25 14:46:40;;;;;;;1.35;1.25;;;;;;;;;;4992946;28;20038;-90
2024/03/25 14:52:23;;;;;;;1.17;1.17;;;;;;;;;;5002885;28;20128;-91
2024/03/25 14:54:49;;;;;;;2.00;1.67;;;;;;;;;;4992661;28;20068;-92
2024/03/25 14:57:14;;;;;;;1.70;1.60;;;;;;;;;;4991990;28;20133;-88
2024/03/25 14:59:43;;;;;;;1.45;1.35;;;;;;;;;;4994687;28;20057;-91
2024/03/25 15:02:12;;;;;;;1.58;1.48;;;;;;;;;;4994892;28;20022;-90
2024/03/25 15:04:43;;;;;;;2.20;1.83;;;;;;;;;;4996883;28;20058;-92
2024/03/25 15:07:13;;;;;;;1.60;1.50;;;;;;;;;;4996612;28;20053;-91
2024/03/25 15:09:41;;;;;;;2.28;2.10;;;;;;;;;;4994895;28;20033;-89
2024/03/25 15:12:12;;;;;;;2.13;1.92;;;;;;;;;;4996889;28;20056;-93
2024/03/25 15:14:38;;;;;;;1.58;1.48;;;;;;;;;;4996631;28;20070;-91
2024/03/25 15:17:03;;;;;;;1.35;1.25;;;;;;;;;;4992838;28;20136;-90
2024/03/25 15:19:31;;;;;;;1.35;1.27;;;;;;;;;;4992656;28;20029;-92
2024/03/25 15:21:57;;;;;;;1.90;1.80;;;;;;;;;;4993852;28;20376;-90
2024/03/25 15:24:23;;;;;;;1.40;1.30;;;;;;;;;;4997316;28;20045;-90
2024/03/25 15:27:08;;;;;;;3.47;1.90;;;;;;;;;;5026840;28;20034;-89
2024/03/25 15:29:42;;;;;;;3.63;2.55;;;;;;;;;;5012560;28;20045;-89